sensor_id;sensor_type;location;lat;lon;timestamp;P1;durP1;ratioP1;P2;durP2;ratioP2
74483;SDS011;62942;52.462;10.846;2022-11-15T00:00:26;23.1;;;35.7;;
74483;SDS011;62942;52.462;10.846;2022-11-15T00:01:36;22.4;;;33.9;;
74483;SDS011;62942;52.462;10.846;2022-11-15T00:02:36;22.4;;;34.1;;
74483;SDS011;62942;52.462;10.846;2022-11-15T00:03:50;22.4;;;33.5;;
74483;SDS011;62942;52.462;10.846;2022-11-15T00:04:56;22.2;;;33.2;;
74483;SDS011;62942;52.462;10.846;2022-11-15T00:06:00;21.5;;;33.2;;
74483;SDS011;62942;52.462;10.846;2022-11-15T00:07:06;21.8;;;31.9;;
74483;SDS011;62942;52.462;10.846;2022-11-15T00:08:06;21.6;;;32;;
74483;SDS011;62942;52.462;10.846;2022-11-15T00:09:16;21.5;;;31.9;;
74483;SDS011;62942;52.462;10.846;2022-11-15T00:10:16;21.5;;;32.6;;
74483;SDS011;62942;52.462;10.846;2022-11-15T00:11:26;21.5;;;31.8;;
74483;SDS011;62942;52.462;10.846;2022-11-15T00:12:26;21.5;;;31.8;;
74483;SDS011;62942;52.462;10.846;2022-11-15T00:13:36;22.1;;;34.4;;
74483;SDS011;62942;52.462;10.846;2022-11-15T00:14:46;22.8;;;34.4;;
74483;SDS011;62942;52.462;10.846;2022-11-15T00:15:46;22.4;;;33.6;;
74483;SDS011;62942;52.462;10.846;2022-11-15T00:16:56;21.6;;;33.5;;
74483;SDS011;62942;52.462;10.846;2022-11-15T00:17:56;21.4;;;32.9;;
74483;SDS011;62942;52.462;10.846;2022-11-15T00:18:56;22;;;34.4;;
74483;SDS011;62942;52.462;10.846;2022-11-15T00:20:06;21.9;;;33.2;;
74483;SDS011;62942;52.462;10.846;2022-11-15T00:21:07;22;;;33.3;;
74483;SDS011;62942;52.462;10.846;2022-11-15T00:22:16;22.1;;;32.9;;
74483;SDS011;62942;52.462;10.846;2022-11-15T00:23:26;22.3;;;34;;
74483;SDS011;62942;52.462;10.846;2022-11-15T00:24:36;22.9;;;35.7;;
74483;SDS011;62942;52.462;10.846;2022-11-15T00:25:36;23;;;35.2;;
74483;SDS011;62942;52.462;10.846;2022-11-15T00:26:46;22.5;;;34.8;;
74483;SDS011;62942;52.462;10.846;2022-11-15T00:27:56;22.6;;;35.2;;
74483;SDS011;62942;52.462;10.846;2022-11-15T00:29:06;22.6;;;35.6;;
74483;SDS011;62942;52.462;10.846;2022-11-15T00:30:16;22.6;;;35.5;;
74483;SDS011;62942;52.462;10.846;2022-11-15T00:31:26;22.5;;;35.2;;
74483;SDS011;62942;52.462;10.846;2022-11-15T00:32:26;22.3;;;33.7;;
74483;SDS011;62942;52.462;10.846;2022-11-15T00:33:36;22.8;;;37.9;;
74483;SDS011;62942;52.462;10.846;2022-11-15T00:34:36;23;;;36.8;;
74483;SDS011;62942;52.462;10.846;2022-11-15T00:35:36;24.2;;;38.4;;
74483;SDS011;62942;52.462;10.846;2022-11-15T00:36:46;23.6;;;36.7;;
74483;SDS011;62942;52.462;10.846;2022-11-15T00:37:56;24.2;;;38.4;;
74483;SDS011;62942;52.462;10.846;2022-11-15T00:39:06;24.3;;;37.6;;
74483;SDS011;62942;52.462;10.846;2022-11-15T00:40:07;23.8;;;37.1;;
74483;SDS011;62942;52.462;10.846;2022-11-15T00:41:16;24;;;38.6;;
74483;SDS011;62942;52.462;10.846;2022-11-15T00:42:16;24.4;;;38.9;;
74483;SDS011;62942;52.462;10.846;2022-11-15T00:43:16;23.4;;;36.6;;
74483;SDS011;62942;52.462;10.846;2022-11-15T00:44:26;24.3;;;38.7;;
74483;SDS011;62942;52.462;10.846;2022-11-15T00:45:26;24;;;37.7;;
74483;SDS011;62942;52.462;10.846;2022-11-15T00:46:26;23.8;;;36.8;;
74483;SDS011;62942;52.462;10.846;2022-11-15T00:47:26;23;;;37.1;;
74483;SDS011;62942;52.462;10.846;2022-11-15T00:48:36;23.5;;;36.7;;
74483;SDS011;62942;52.462;10.846;2022-11-15T00:49:36;23.1;;;37.1;;
74483;SDS011;62942;52.462;10.846;2022-11-15T00:50:36;23.3;;;36.4;;
74483;SDS011;62942;52.462;10.846;2022-11-15T00:51:46;22.6;;;36.1;;
74483;SDS011;62942;52.462;10.846;2022-11-15T00:52:56;22.9;;;37.3;;
74483;SDS011;62942;52.462;10.846;2022-11-15T00:54:06;23.1;;;37;;
74483;SDS011;62942;52.462;10.846;2022-11-15T00:55:06;23.2;;;37.1;;
74483;SDS011;62942;52.462;10.846;2022-11-15T00:56:06;23.2;;;36.8;;
74483;SDS011;62942;52.462;10.846;2022-11-15T00:57:06;23.1;;;36.1;;
74483;SDS011;62942;52.462;10.846;2022-11-15T00:58:16;22.9;;;36.3;;
74483;SDS011;62942;52.462;10.846;2022-11-15T00:59:16;23.4;;;37;;
74483;SDS011;62942;52.462;10.846;2022-11-15T01:00:26;23.8;;;38.3;;
74483;SDS011;62942;52.462;10.846;2022-11-15T01:01:36;24.5;;;39.1;;
74483;SDS011;62942;52.462;10.846;2022-11-15T01:02:36;25.2;;;40.3;;
74483;SDS011;62942;52.462;10.846;2022-11-15T01:03:46;25.1;;;40.8;;
74483;SDS011;62942;52.462;10.846;2022-11-15T01:04:46;24.8;;;40.9;;
74483;SDS011;62942;52.462;10.846;2022-11-15T01:05:58;24.7;;;41.8;;
74483;SDS011;62942;52.462;10.846;2022-11-15T01:07:06;25.8;;;42.5;;
74483;SDS011;62942;52.462;10.846;2022-11-15T01:08:10;25;;;42;;
74483;SDS011;62942;52.462;10.846;2022-11-15T01:09:16;25.5;;;42.3;;
74483;SDS011;62942;52.462;10.846;2022-11-15T01:10:26;25.2;;;41.7;;
74483;SDS011;62942;52.462;10.846;2022-11-15T01:11:26;26.2;;;43.8;;
74483;SDS011;62942;52.462;10.846;2022-11-15T01:12:36;25.4;;;42.9;;
74483;SDS011;62942;52.462;10.846;2022-11-15T01:13:36;25.4;;;42.6;;
74483;SDS011;62942;52.462;10.846;2022-11-15T01:14:46;25.5;;;42.8;;
74483;SDS011;62942;52.462;10.846;2022-11-15T01:15:46;25.8;;;42.1;;
74483;SDS011;62942;52.462;10.846;2022-11-15T01:16:46;25.6;;;42.4;;
74483;SDS011;62942;52.462;10.846;2022-11-15T01:17:56;26.4;;;44.3;;
74483;SDS011;62942;52.462;10.846;2022-11-15T01:18:56;25.8;;;42.8;;
74483;SDS011;62942;52.462;10.846;2022-11-15T01:19:56;26.2;;;44.5;;
74483;SDS011;62942;52.462;10.846;2022-11-15T01:21:07;25.6;;;43.3;;
74483;SDS011;62942;52.462;10.846;2022-11-15T01:22:06;25.9;;;43.8;;
74483;SDS011;62942;52.462;10.846;2022-11-15T01:23:16;26.2;;;44.4;;
74483;SDS011;62942;52.462;10.846;2022-11-15T01:24:16;26.2;;;43.8;;
74483;SDS011;62942;52.462;10.846;2022-11-15T01:25:16;26.1;;;43;;
74483;SDS011;62942;52.462;10.846;2022-11-15T01:26:26;26.2;;;43.6;;
74483;SDS011;62942;52.462;10.846;2022-11-15T01:27:26;25.4;;;41.3;;
74483;SDS011;62942;52.462;10.846;2022-11-15T01:28:37;26;;;42.3;;
74483;SDS011;62942;52.462;10.846;2022-11-15T01:29:36;25.7;;;43.1;;
74483;SDS011;62942;52.462;10.846;2022-11-15T01:30:46;25.8;;;44.1;;
74483;SDS011;62942;52.462;10.846;2022-11-15T01:31:56;26;;;43.7;;
74483;SDS011;62942;52.462;10.846;2022-11-15T01:32:56;25.2;;;41.1;;
74483;SDS011;62942;52.462;10.846;2022-11-15T01:34:06;25.4;;;42;;
74483;SDS011;62942;52.462;10.846;2022-11-15T01:35:16;25.3;;;41.8;;
74483;SDS011;62942;52.462;10.846;2022-11-15T01:36:17;25.6;;;41.6;;
74483;SDS011;62942;52.462;10.846;2022-11-15T01:37:26;25.4;;;42;;
74483;SDS011;62942;52.462;10.846;2022-11-15T01:38:36;25.2;;;40.5;;
74483;SDS011;62942;52.462;10.846;2022-11-15T01:39:36;24.5;;;38.3;;
74483;SDS011;62942;52.462;10.846;2022-11-15T01:40:36;25.1;;;41.4;;
74483;SDS011;62942;52.462;10.846;2022-11-15T01:41:46;24.7;;;39.7;;
74483;SDS011;62942;52.462;10.846;2022-11-15T01:42:56;24.6;;;40.3;;
74483;SDS011;62942;52.462;10.846;2022-11-15T01:43:57;24.6;;;39.7;;
74483;SDS011;62942;52.462;10.846;2022-11-15T01:44:56;24.3;;;39.6;;
74483;SDS011;62942;52.462;10.846;2022-11-15T01:46:08;23.6;;;38.2;;
74483;SDS011;62942;52.462;10.846;2022-11-15T01:47:07;24.2;;;39.2;;
74483;SDS011;62942;52.462;10.846;2022-11-15T01:48:07;24.7;;;39.7;;
74483;SDS011;62942;52.462;10.846;2022-11-15T01:49:17;24.4;;;39.4;;
74483;SDS011;62942;52.462;10.846;2022-11-15T01:50:17;24.7;;;39.9;;
74483;SDS011;62942;52.462;10.846;2022-11-15T01:51:16;24.4;;;39.4;;
74483;SDS011;62942;52.462;10.846;2022-11-15T01:52:27;24.3;;;39.8;;
74483;SDS011;62942;52.462;10.846;2022-11-15T01:53:26;23.7;;;38.6;;
74483;SDS011;62942;52.462;10.846;2022-11-15T01:54:36;24.2;;;39.6;;
74483;SDS011;62942;52.462;10.846;2022-11-15T01:55:36;24.6;;;39.1;;
74483;SDS011;62942;52.462;10.846;2022-11-15T01:56:50;24.4;;;38.9;;
74483;SDS011;62942;52.462;10.846;2022-11-15T01:57:46;24.4;;;39.1;;
74483;SDS011;62942;52.462;10.846;2022-11-15T01:58:56;23.6;;;39.2;;
74483;SDS011;62942;52.462;10.846;2022-11-15T01:59:56;24.2;;;40.3;;
74483;SDS011;62942;52.462;10.846;2022-11-15T02:00:56;23.7;;;39.6;;
74483;SDS011;62942;52.462;10.846;2022-11-15T02:02:06;23.9;;;39.5;;
74483;SDS011;62942;52.462;10.846;2022-11-15T02:03:16;23.4;;;39;;
74483;SDS011;62942;52.462;10.846;2022-11-15T02:04:16;24.1;;;39.8;;
74483;SDS011;62942;52.462;10.846;2022-11-15T02:05:16;24.5;;;40.8;;
74483;SDS011;62942;52.462;10.846;2022-11-15T02:06:16;24;;;39.9;;
74483;SDS011;62942;52.462;10.846;2022-11-15T02:07:26;24.4;;;40.4;;
74483;SDS011;62942;52.462;10.846;2022-11-15T02:08:26;24;;;39;;
74483;SDS011;62942;52.462;10.846;2022-11-15T02:09:36;24.1;;;38.6;;
74483;SDS011;62942;52.462;10.846;2022-11-15T02:10:36;25.1;;;41;;
74483;SDS011;62942;52.462;10.846;2022-11-15T02:11:46;25.3;;;43.8;;
74483;SDS011;62942;52.462;10.846;2022-11-15T02:12:46;24.5;;;41.6;;
74483;SDS011;62942;52.462;10.846;2022-11-15T02:13:56;24.9;;;40.3;;
74483;SDS011;62942;52.462;10.846;2022-11-15T02:14:56;24.6;;;40.2;;
74483;SDS011;62942;52.462;10.846;2022-11-15T02:15:59;24.6;;;42.5;;
74483;SDS011;62942;52.462;10.846;2022-11-15T02:16:58;25;;;42.5;;
74483;SDS011;62942;52.462;10.846;2022-11-15T02:18:09;24.9;;;41.7;;
74483;SDS011;62942;52.462;10.846;2022-11-15T02:19:09;24.9;;;42.2;;
74483;SDS011;62942;52.462;10.846;2022-11-15T02:21:01;24.2;;;40.9;;
74483;SDS011;62942;52.462;10.846;2022-11-15T02:21:17;24.6;;;41.3;;
74483;SDS011;62942;52.462;10.846;2022-11-15T02:22:29;25;;;42.2;;
74483;SDS011;62942;52.462;10.846;2022-11-15T02:23:31;24.4;;;41.7;;
74483;SDS011;62942;52.462;10.846;2022-11-15T02:24:43;24.7;;;41.8;;
74483;SDS011;62942;52.462;10.846;2022-11-15T02:25:48;25.3;;;43.4;;
74483;SDS011;62942;52.462;10.846;2022-11-15T02:27:07;25.6;;;43.5;;
74483;SDS011;62942;52.462;10.846;2022-11-15T02:27:59;24.9;;;42.9;;
74483;SDS011;62942;52.462;10.846;2022-11-15T02:28:58;24.8;;;41.4;;
74483;SDS011;62942;52.462;10.846;2022-11-15T02:30:15;25.7;;;45;;
74483;SDS011;62942;52.462;10.846;2022-11-15T02:31:17;25.7;;;44.4;;
74483;SDS011;62942;52.462;10.846;2022-11-15T02:32:27;25.7;;;44.4;;
74483;SDS011;62942;52.462;10.846;2022-11-15T02:33:28;25.8;;;44.2;;
74483;SDS011;62942;52.462;10.846;2022-11-15T02:34:39;26.1;;;46.7;;
74483;SDS011;62942;52.462;10.846;2022-11-15T02:35:47;26;;;45.9;;
74483;SDS011;62942;52.462;10.846;2022-11-15T02:36:59;26.5;;;48;;
74483;SDS011;62942;52.462;10.846;2022-11-15T02:38:07;27.1;;;47.1;;
74483;SDS011;62942;52.462;10.846;2022-11-15T02:39:07;26.1;;;46.9;;
74483;SDS011;62942;52.462;10.846;2022-11-15T02:40:06;26.9;;;47.2;;
74483;SDS011;62942;52.462;10.846;2022-11-15T02:41:06;27.3;;;50.3;;
74483;SDS011;62942;52.462;10.846;2022-11-15T02:42:17;26.8;;;47.8;;
74483;SDS011;62942;52.462;10.846;2022-11-15T02:43:28;26.9;;;48.1;;
74483;SDS011;62942;52.462;10.846;2022-11-15T02:44:26;27.2;;;48.2;;
74483;SDS011;62942;52.462;10.846;2022-11-15T02:45:36;27.4;;;46.5;;
74483;SDS011;62942;52.462;10.846;2022-11-15T02:46:36;26.6;;;46.4;;
74483;SDS011;62942;52.462;10.846;2022-11-15T02:47:37;26.7;;;47.7;;
74483;SDS011;62942;52.462;10.846;2022-11-15T02:48:46;27.9;;;50.1;;
74483;SDS011;62942;52.462;10.846;2022-11-15T02:49:46;26.8;;;48;;
74483;SDS011;62942;52.462;10.846;2022-11-15T02:50:46;27.1;;;48.9;;
74483;SDS011;62942;52.462;10.846;2022-11-15T02:51:46;27.8;;;50.5;;
74483;SDS011;62942;52.462;10.846;2022-11-15T02:52:56;27.2;;;49.4;;
74483;SDS011;62942;52.462;10.846;2022-11-15T02:53:56;26.8;;;47.2;;
74483;SDS011;62942;52.462;10.846;2022-11-15T02:54:56;27.4;;;48.1;;
74483;SDS011;62942;52.462;10.846;2022-11-15T02:55:56;26.5;;;47.2;;
74483;SDS011;62942;52.462;10.846;2022-11-15T02:56:58;26.8;;;47;;
74483;SDS011;62942;52.462;10.846;2022-11-15T02:58:10;26.1;;;48;;
74483;SDS011;62942;52.462;10.846;2022-11-15T02:59:10;26.3;;;47.7;;
74483;SDS011;62942;52.462;10.846;2022-11-15T03:00:06;26.5;;;46.8;;
74483;SDS011;62942;52.462;10.846;2022-11-15T03:01:19;27.7;;;49;;
74483;SDS011;62942;52.462;10.846;2022-11-15T03:02:22;27;;;47.1;;
74483;SDS011;62942;52.462;10.846;2022-11-15T03:03:21;27.3;;;49;;
74483;SDS011;62942;52.462;10.846;2022-11-15T03:04:18;26.7;;;47.6;;
74483;SDS011;62942;52.462;10.846;2022-11-15T03:05:18;27.1;;;48.2;;
74483;SDS011;62942;52.462;10.846;2022-11-15T03:06:28;27.2;;;48.3;;
74483;SDS011;62942;52.462;10.846;2022-11-15T03:07:39;27.4;;;51.1;;
74483;SDS011;62942;52.462;10.846;2022-11-15T03:08:48;26.7;;;48.7;;
74483;SDS011;62942;52.462;10.846;2022-11-15T03:09:47;27.1;;;47.8;;
74483;SDS011;62942;52.462;10.846;2022-11-15T03:10:47;27.4;;;49.8;;
74483;SDS011;62942;52.462;10.846;2022-11-15T03:11:46;26.6;;;46.7;;
74483;SDS011;62942;52.462;10.846;2022-11-15T03:12:48;26.9;;;47.6;;
74483;SDS011;62942;52.462;10.846;2022-11-15T03:13:56;26.2;;;46.1;;
74483;SDS011;62942;52.462;10.846;2022-11-15T03:14:56;27.1;;;46.9;;
74483;SDS011;62942;52.462;10.846;2022-11-15T03:16:06;25.8;;;46.5;;
74483;SDS011;62942;52.462;10.846;2022-11-15T03:17:08;26.8;;;47.5;;
74483;SDS011;62942;52.462;10.846;2022-11-15T03:18:17;25.5;;;43.8;;
74483;SDS011;62942;52.462;10.846;2022-11-15T03:19:27;26.4;;;47.2;;
74483;SDS011;62942;52.462;10.846;2022-11-15T03:20:26;26.4;;;44.8;;
74483;SDS011;62942;52.462;10.846;2022-11-15T03:21:36;25.1;;;43.2;;
74483;SDS011;62942;52.462;10.846;2022-11-15T03:22:36;25.7;;;44.4;;
74483;SDS011;62942;52.462;10.846;2022-11-15T03:23:46;26.1;;;46;;
74483;SDS011;62942;52.462;10.846;2022-11-15T03:24:46;25;;;41.8;;
74483;SDS011;62942;52.462;10.846;2022-11-15T03:25:56;25.9;;;45;;
74483;SDS011;62942;52.462;10.846;2022-11-15T03:26:56;24.5;;;43.1;;
74483;SDS011;62942;52.462;10.846;2022-11-15T03:28:06;25.1;;;44.2;;
74483;SDS011;62942;52.462;10.846;2022-11-15T03:29:07;24.5;;;43.2;;
74483;SDS011;62942;52.462;10.846;2022-11-15T03:30:16;25;;;43.8;;
74483;SDS011;62942;52.462;10.846;2022-11-15T03:31:16;25.3;;;43.5;;
74483;SDS011;62942;52.462;10.846;2022-11-15T03:32:26;24.8;;;42.8;;
74483;SDS011;62942;52.462;10.846;2022-11-15T03:33:26;25.3;;;42.4;;
74483;SDS011;62942;52.462;10.846;2022-11-15T03:34:37;25.1;;;43.3;;
74483;SDS011;62942;52.462;10.846;2022-11-15T03:35:37;24.4;;;42.5;;
74483;SDS011;62942;52.462;10.846;2022-11-15T03:36:46;24.9;;;42.2;;
74483;SDS011;62942;52.462;10.846;2022-11-15T03:37:48;24.4;;;39.4;;
74483;SDS011;62942;52.462;10.846;2022-11-15T03:38:56;24.5;;;42;;
74483;SDS011;62942;52.462;10.846;2022-11-15T03:39:56;24.3;;;40;;
74483;SDS011;62942;52.462;10.846;2022-11-15T03:41:07;23.8;;;41;;
74483;SDS011;62942;52.462;10.846;2022-11-15T03:42:08;24.8;;;41.4;;
74483;SDS011;62942;52.462;10.846;2022-11-15T03:43:19;24.2;;;40.4;;
74483;SDS011;62942;52.462;10.846;2022-11-15T03:44:34;24.1;;;39.5;;
74483;SDS011;62942;52.462;10.846;2022-11-15T03:45:27;23.7;;;40.4;;
74483;SDS011;62942;52.462;10.846;2022-11-15T03:46:27;24;;;41;;
74483;SDS011;62942;52.462;10.846;2022-11-15T03:47:38;24.3;;;41.5;;
74483;SDS011;62942;52.462;10.846;2022-11-15T03:48:37;25;;;42.8;;
74483;SDS011;62942;52.462;10.846;2022-11-15T03:49:46;24.1;;;40.4;;
74483;SDS011;62942;52.462;10.846;2022-11-15T03:50:46;25;;;42.5;;
74483;SDS011;62942;52.462;10.846;2022-11-15T03:51:46;24.4;;;40.9;;
74483;SDS011;62942;52.462;10.846;2022-11-15T03:52:56;24.6;;;43.2;;
74483;SDS011;62942;52.462;10.846;2022-11-15T03:53:56;24.2;;;40.5;;
74483;SDS011;62942;52.462;10.846;2022-11-15T03:55:07;24.2;;;41.7;;
74483;SDS011;62942;52.462;10.846;2022-11-15T03:56:06;24.1;;;40.4;;
74483;SDS011;62942;52.462;10.846;2022-11-15T03:57:06;24.4;;;42;;
74483;SDS011;62942;52.462;10.846;2022-11-15T03:58:06;23.9;;;39.9;;
74483;SDS011;62942;52.462;10.846;2022-11-15T03:59:16;23.7;;;39.2;;
74483;SDS011;62942;52.462;10.846;2022-11-15T04:00:16;23.9;;;40.2;;
74483;SDS011;62942;52.462;10.846;2022-11-15T04:01:16;24.1;;;39.6;;
74483;SDS011;62942;52.462;10.846;2022-11-15T04:02:26;23.9;;;40.3;;
74483;SDS011;62942;52.462;10.846;2022-11-15T04:03:36;23.4;;;38.2;;
74483;SDS011;62942;52.462;10.846;2022-11-15T04:04:36;23.3;;;39.3;;
74483;SDS011;62942;52.462;10.846;2022-11-15T04:05:46;23.1;;;39.1;;
74483;SDS011;62942;52.462;10.846;2022-11-15T04:06:46;23.5;;;38;;
74483;SDS011;62942;52.462;10.846;2022-11-15T04:07:56;23.1;;;38.3;;
74483;SDS011;62942;52.462;10.846;2022-11-15T04:08:56;23;;;38.4;;
74483;SDS011;62942;52.462;10.846;2022-11-15T04:09:56;23.5;;;39.7;;
74483;SDS011;62942;52.462;10.846;2022-11-15T04:11:06;23;;;38.9;;
74483;SDS011;62942;52.462;10.846;2022-11-15T04:12:06;22.4;;;37;;
74483;SDS011;62942;52.462;10.846;2022-11-15T04:13:16;22.1;;;36.8;;
74483;SDS011;62942;52.462;10.846;2022-11-15T04:14:16;21.9;;;37.4;;
74483;SDS011;62942;52.462;10.846;2022-11-15T04:15:17;21.9;;;35.6;;
74483;SDS011;62942;52.462;10.846;2022-11-15T04:16:26;22.1;;;36.2;;
74483;SDS011;62942;52.462;10.846;2022-11-15T04:17:37;20.9;;;33.6;;
74483;SDS011;62942;52.462;10.846;2022-11-15T04:18:36;21.5;;;34.6;;
74483;SDS011;62942;52.462;10.846;2022-11-15T04:19:46;20.9;;;35;;
74483;SDS011;62942;52.462;10.846;2022-11-15T04:20:46;21.2;;;35.4;;
74483;SDS011;62942;52.462;10.846;2022-11-15T04:21:56;22.4;;;38.2;;
74483;SDS011;62942;52.462;10.846;2022-11-15T04:23:06;23;;;38.5;;
74483;SDS011;62942;52.462;10.846;2022-11-15T04:24:06;23.6;;;40;;
74483;SDS011;62942;52.462;10.846;2022-11-15T04:25:16;23.7;;;40.2;;
74483;SDS011;62942;52.462;10.846;2022-11-15T04:26:26;23.8;;;40.2;;
74483;SDS011;62942;52.462;10.846;2022-11-15T04:27:36;23.9;;;41.7;;
74483;SDS011;62942;52.462;10.846;2022-11-15T04:28:46;24;;;41.5;;
74483;SDS011;62942;52.462;10.846;2022-11-15T04:29:56;23.6;;;40.8;;
74483;SDS011;62942;52.462;10.846;2022-11-15T04:31:06;24;;;41.7;;
74483;SDS011;62942;52.462;10.846;2022-11-15T04:32:16;24;;;41;;
74483;SDS011;62942;52.462;10.846;2022-11-15T04:33:16;24.5;;;41.3;;
74483;SDS011;62942;52.462;10.846;2022-11-15T04:34:16;23.8;;;41.4;;
74483;SDS011;62942;52.462;10.846;2022-11-15T04:35:26;23.7;;;40.8;;
74483;SDS011;62942;52.462;10.846;2022-11-15T04:36:36;23.2;;;39.2;;
74483;SDS011;62942;52.462;10.846;2022-11-15T04:37:46;22.5;;;38.7;;
74483;SDS011;62942;52.462;10.846;2022-11-15T04:38:46;23.1;;;39.1;;
74483;SDS011;62942;52.462;10.846;2022-11-15T04:39:56;23.4;;;39;;
74483;SDS011;62942;52.462;10.846;2022-11-15T04:41:06;24.6;;;42.6;;
74483;SDS011;62942;52.462;10.846;2022-11-15T04:42:16;23.5;;;41.4;;
74483;SDS011;62942;52.462;10.846;2022-11-15T04:43:26;23.5;;;40.3;;
74483;SDS011;62942;52.462;10.846;2022-11-15T04:44:26;24;;;40.7;;
74483;SDS011;62942;52.462;10.846;2022-11-15T04:45:36;23.4;;;41;;
74483;SDS011;62942;52.462;10.846;2022-11-15T04:46:46;24.8;;;44.3;;
74483;SDS011;62942;52.462;10.846;2022-11-15T04:47:56;24.7;;;44.3;;
74483;SDS011;62942;52.462;10.846;2022-11-15T04:49:06;24.7;;;44;;
74483;SDS011;62942;52.462;10.846;2022-11-15T04:50:06;24.6;;;43.7;;
74483;SDS011;62942;52.462;10.846;2022-11-15T04:51:16;24.2;;;44.1;;
74483;SDS011;62942;52.462;10.846;2022-11-15T04:52:16;24.5;;;43.2;;
74483;SDS011;62942;52.462;10.846;2022-11-15T04:53:26;24.6;;;45;;
74483;SDS011;62942;52.462;10.846;2022-11-15T04:54:36;24;;;44.1;;
74483;SDS011;62942;52.462;10.846;2022-11-15T04:55:46;25.1;;;45;;
74483;SDS011;62942;52.462;10.846;2022-11-15T04:56:56;25.4;;;47.1;;
74483;SDS011;62942;52.462;10.846;2022-11-15T04:57:57;24.4;;;44.1;;
74483;SDS011;62942;52.462;10.846;2022-11-15T04:59:06;24.6;;;43.5;;
74483;SDS011;62942;52.462;10.846;2022-11-15T05:00:06;24.7;;;43.1;;
74483;SDS011;62942;52.462;10.846;2022-11-15T05:01:16;24.3;;;41.4;;
74483;SDS011;62942;52.462;10.846;2022-11-15T05:02:16;24.8;;;44;;
74483;SDS011;62942;52.462;10.846;2022-11-15T05:03:26;23.9;;;42.3;;
74483;SDS011;62942;52.462;10.846;2022-11-15T05:04:26;24.2;;;42.2;;
74483;SDS011;62942;52.462;10.846;2022-11-15T05:05:36;24.7;;;44;;
74483;SDS011;62942;52.462;10.846;2022-11-15T05:06:47;25.2;;;45;;
74483;SDS011;62942;52.462;10.846;2022-11-15T05:07:46;24.3;;;43.4;;
74483;SDS011;62942;52.462;10.846;2022-11-15T05:08:46;25.5;;;45.6;;
74483;SDS011;62942;52.462;10.846;2022-11-15T05:09:56;25.5;;;47.3;;
74483;SDS011;62942;52.462;10.846;2022-11-15T05:10:56;25.6;;;47.3;;
74483;SDS011;62942;52.462;10.846;2022-11-15T05:12:06;27;;;50.7;;
74483;SDS011;62942;52.462;10.846;2022-11-15T05:13:16;26.1;;;48.2;;
74483;SDS011;62942;52.462;10.846;2022-11-15T05:14:16;26.5;;;49.8;;
74483;SDS011;62942;52.462;10.846;2022-11-15T05:15:26;27.4;;;52;;
74483;SDS011;62942;52.462;10.846;2022-11-15T05:16:36;27;;;50.8;;
74483;SDS011;62942;52.462;10.846;2022-11-15T05:17:46;26.9;;;51.7;;
74483;SDS011;62942;52.462;10.846;2022-11-15T05:18:56;27.1;;;51.9;;
74483;SDS011;62942;52.462;10.846;2022-11-15T05:20:06;27.3;;;51.9;;
74483;SDS011;62942;52.462;10.846;2022-11-15T05:21:06;27;;;49.8;;
74483;SDS011;62942;52.462;10.846;2022-11-15T05:22:16;27.3;;;50.8;;
74483;SDS011;62942;52.462;10.846;2022-11-15T05:23:16;27.8;;;54.1;;
74483;SDS011;62942;52.462;10.846;2022-11-15T05:24:26;28;;;52.5;;
74483;SDS011;62942;52.462;10.846;2022-11-15T05:25:36;28.1;;;54.2;;
74483;SDS011;62942;52.462;10.846;2022-11-15T05:26:36;28.7;;;54.9;;
74483;SDS011;62942;52.462;10.846;2022-11-15T05:27:36;28.1;;;53.4;;
74483;SDS011;62942;52.462;10.846;2022-11-15T05:28:46;28.8;;;54.2;;
74483;SDS011;62942;52.462;10.846;2022-11-15T05:29:56;29.1;;;55.5;;
74483;SDS011;62942;52.462;10.846;2022-11-15T05:31:07;29.4;;;58.1;;
74483;SDS011;62942;52.462;10.846;2022-11-15T05:32:06;28.9;;;54.3;;
74483;SDS011;62942;52.462;10.846;2022-11-15T05:33:16;29.7;;;58.2;;
74483;SDS011;62942;52.462;10.846;2022-11-15T05:34:16;28.8;;;57.2;;
74483;SDS011;62942;52.462;10.846;2022-11-15T05:35:30;29;;;56.4;;
74483;SDS011;62942;52.462;10.846;2022-11-15T05:36:36;29.9;;;58.4;;
74483;SDS011;62942;52.462;10.846;2022-11-15T05:37:36;29.9;;;59.6;;
74483;SDS011;62942;52.462;10.846;2022-11-15T05:38:36;29.5;;;55.8;;
74483;SDS011;62942;52.462;10.846;2022-11-15T05:39:46;30.3;;;56.8;;
74483;SDS011;62942;52.462;10.846;2022-11-15T05:40:56;30.2;;;57.1;;
74483;SDS011;62942;52.462;10.846;2022-11-15T05:42:07;28.7;;;55.3;;
74483;SDS011;62942;52.462;10.846;2022-11-15T05:43:16;28.5;;;51.6;;
74483;SDS011;62942;52.462;10.846;2022-11-15T05:44:16;27.5;;;51.2;;
74483;SDS011;62942;52.462;10.846;2022-11-15T05:45:16;28.1;;;51.6;;
74483;SDS011;62942;52.462;10.846;2022-11-15T05:46:26;28.4;;;54.2;;
74483;SDS011;62942;52.462;10.846;2022-11-15T05:47:26;27.8;;;52.3;;
74483;SDS011;62942;52.462;10.846;2022-11-15T05:48:36;28.1;;;52.8;;
74483;SDS011;62942;52.462;10.846;2022-11-15T05:49:46;29.1;;;56.1;;
74483;SDS011;62942;52.462;10.846;2022-11-15T05:50:46;29.5;;;56;;
74483;SDS011;62942;52.462;10.846;2022-11-15T05:51:46;28.1;;;51.7;;
74483;SDS011;62942;52.462;10.846;2022-11-15T05:52:56;27.7;;;52.3;;
74483;SDS011;62942;52.462;10.846;2022-11-15T05:53:56;28.1;;;52.7;;
74483;SDS011;62942;52.462;10.846;2022-11-15T05:54:56;27.5;;;54;;
74483;SDS011;62942;52.462;10.846;2022-11-15T05:56:06;27.7;;;49.6;;
74483;SDS011;62942;52.462;10.846;2022-11-15T05:57:06;27.2;;;49.9;;
74483;SDS011;62942;52.462;10.846;2022-11-15T05:58:16;27.8;;;50;;
74483;SDS011;62942;52.462;10.846;2022-11-15T05:59:27;27.5;;;53.4;;
74483;SDS011;62942;52.462;10.846;2022-11-15T06:00:36;28.1;;;52.8;;
74483;SDS011;62942;52.462;10.846;2022-11-15T06:01:36;27.7;;;51.8;;
74483;SDS011;62942;52.462;10.846;2022-11-15T06:02:36;27.6;;;51.7;;
74483;SDS011;62942;52.462;10.846;2022-11-15T06:03:45;28.5;;;53.9;;
74483;SDS011;62942;52.462;10.846;2022-11-15T06:04:46;28.7;;;57.5;;
74483;SDS011;62942;52.462;10.846;2022-11-15T06:05:56;28.5;;;54.7;;
74483;SDS011;62942;52.462;10.846;2022-11-15T06:07:05;28.1;;;55.6;;
74483;SDS011;62942;52.462;10.846;2022-11-15T06:08:06;28.5;;;54.6;;
74483;SDS011;62942;52.462;10.846;2022-11-15T06:09:15;28.3;;;54.4;;
74483;SDS011;62942;52.462;10.846;2022-11-15T06:10:26;27.8;;;53.9;;
74483;SDS011;62942;52.462;10.846;2022-11-15T06:11:26;28.5;;;56.8;;
74483;SDS011;62942;52.462;10.846;2022-11-15T06:12:36;28.1;;;52.9;;
74483;SDS011;62942;52.462;10.846;2022-11-15T06:13:36;28.3;;;55.1;;
74483;SDS011;62942;52.462;10.846;2022-11-15T06:14:36;28.5;;;54.8;;
74483;SDS011;62942;52.462;10.846;2022-11-15T06:15:45;28.4;;;55.7;;
74483;SDS011;62942;52.462;10.846;2022-11-15T06:16:55;29.7;;;57.2;;
74483;SDS011;62942;52.462;10.846;2022-11-15T06:17:56;29.1;;;54.4;;
74483;SDS011;62942;52.462;10.846;2022-11-15T06:19:06;28.3;;;55.4;;
74483;SDS011;62942;52.462;10.846;2022-11-15T06:20:15;28.7;;;55.6;;
74483;SDS011;62942;52.462;10.846;2022-11-15T06:21:15;28.7;;;54.2;;
74483;SDS011;62942;52.462;10.846;2022-11-15T06:22:25;29.3;;;57;;
74483;SDS011;62942;52.462;10.846;2022-11-15T06:23:26;29.2;;;56.9;;
74483;SDS011;62942;52.462;10.846;2022-11-15T06:24:35;29.3;;;57.8;;
74483;SDS011;62942;52.462;10.846;2022-11-15T06:25:35;28.9;;;55.9;;
74483;SDS011;62942;52.462;10.846;2022-11-15T06:26:46;28.4;;;54.3;;
74483;SDS011;62942;52.462;10.846;2022-11-15T06:27:56;28.9;;;54.2;;
74483;SDS011;62942;52.462;10.846;2022-11-15T06:28:56;28.9;;;55.7;;
74483;SDS011;62942;52.462;10.846;2022-11-15T06:30:06;28.2;;;54.5;;